sensor_id;sensor_type;location;lat;lon;timestamp;P1;durP1;ratioP1;P2;durP2;ratioP2
43529;SDS011;55654;50.966;6.878;2024-01-16T00:00:56;22.40;;;9.07;;
43529;SDS011;55654;50.966;6.878;2024-01-16T00:03:22;19.70;;;8.27;;
43529;SDS011;55654;50.966;6.878;2024-01-16T00:05:48;21.47;;;8.03;;
43529;SDS011;55654;50.966;6.878;2024-01-16T00:08:14;18.87;;;8.67;;
43529;SDS011;55654;50.966;6.878;2024-01-16T00:10:40;18.30;;;8.87;;
43529;SDS011;55654;50.966;6.878;2024-01-16T00:13:06;17.37;;;7.77;;
43529;SDS011;55654;50.966;6.878;2024-01-16T00:15:34;15.50;;;7.97;;
43529;SDS011;55654;50.966;6.878;2024-01-16T00:18:00;20.77;;;7.20;;
43529;SDS011;55654;50.966;6.878;2024-01-16T00:20:29;18.77;;;8.33;;
43529;SDS011;55654;50.966;6.878;2024-01-16T00:22:55;23.77;;;8.37;;
43529;SDS011;55654;50.966;6.878;2024-01-16T00:25:21;17.97;;;7.37;;
43529;SDS011;55654;50.966;6.878;2024-01-16T00:27:49;18.93;;;7.83;;
43529;SDS011;55654;50.966;6.878;2024-01-16T00:30:15;21.20;;;7.90;;
43529;SDS011;55654;50.966;6.878;2024-01-16T00:32:41;19.60;;;7.80;;
43529;SDS011;55654;50.966;6.878;2024-01-16T00:35:07;14.53;;;7.13;;
43529;SDS011;55654;50.966;6.878;2024-01-16T00:37:33;14.10;;;6.93;;
43529;SDS011;55654;50.966;6.878;2024-01-16T00:39:59;16.90;;;7.17;;
43529;SDS011;55654;50.966;6.878;2024-01-16T00:42:25;13.50;;;7.20;;
43529;SDS011;55654;50.966;6.878;2024-01-16T00:44:52;18.20;;;7.37;;
43529;SDS011;55654;50.966;6.878;2024-01-16T00:47:20;18.50;;;7.70;;
43529;SDS011;55654;50.966;6.878;2024-01-16T00:49:46;20.13;;;7.80;;
43529;SDS011;55654;50.966;6.878;2024-01-16T00:52:12;16.20;;;8.13;;
43529;SDS011;55654;50.966;6.878;2024-01-16T00:54:38;18.40;;;8.00;;
43529;SDS011;55654;50.966;6.878;2024-01-16T00:57:05;15.97;;;6.97;;
43529;SDS011;55654;50.966;6.878;2024-01-16T00:59:31;16.10;;;8.57;;
43529;SDS011;55654;50.966;6.878;2024-01-16T01:01:57;15.10;;;8.73;;
43529;SDS011;55654;50.966;6.878;2024-01-16T01:04:23;21.33;;;7.47;;
43529;SDS011;55654;50.966;6.878;2024-01-16T01:06:49;23.23;;;9.50;;
43529;SDS011;55654;50.966;6.878;2024-01-16T01:09:15;16.73;;;7.23;;
43529;SDS011;55654;50.966;6.878;2024-01-16T01:11:44;13.13;;;6.70;;
43529;SDS011;55654;50.966;6.878;2024-01-16T01:14:12;18.33;;;7.83;;
43529;SDS011;55654;50.966;6.878;2024-01-16T01:16:38;17.63;;;9.73;;
43529;SDS011;55654;50.966;6.878;2024-01-16T01:19:04;13.03;;;6.97;;
43529;SDS011;55654;50.966;6.878;2024-01-16T01:21:33;20.43;;;7.97;;
43529;SDS011;55654;50.966;6.878;2024-01-16T01:24:00;17.73;;;6.27;;
43529;SDS011;55654;50.966;6.878;2024-01-16T01:26:26;14.90;;;6.50;;
43529;SDS011;55654;50.966;6.878;2024-01-16T01:28:52;6.57;;;4.40;;
43529;SDS011;55654;50.966;6.878;2024-01-16T01:31:22;10.03;;;6.60;;
43529;SDS011;55654;50.966;6.878;2024-01-16T01:33:48;10.70;;;5.30;;
43529;SDS011;55654;50.966;6.878;2024-01-16T01:36:16;17.00;;;5.80;;
43529;SDS011;55654;50.966;6.878;2024-01-16T01:38:42;16.37;;;6.30;;
43529;SDS011;55654;50.966;6.878;2024-01-16T01:41:08;13.83;;;6.20;;
43529;SDS011;55654;50.966;6.878;2024-01-16T01:43:37;11.70;;;5.57;;
43529;SDS011;55654;50.966;6.878;2024-01-16T01:46:18;12.20;;;5.60;;
43529;SDS011;55654;50.966;6.878;2024-01-16T01:48:46;16.53;;;6.00;;
43529;SDS011;55654;50.966;6.878;2024-01-16T01:51:17;19.53;;;6.70;;
43529;SDS011;55654;50.966;6.878;2024-01-16T01:53:44;15.00;;;6.53;;
43529;SDS011;55654;50.966;6.878;2024-01-16T01:56:11;20.13;;;6.60;;
43529;SDS011;55654;50.966;6.878;2024-01-16T01:58:40;10.90;;;6.63;;
43529;SDS011;55654;50.966;6.878;2024-01-16T02:01:06;17.00;;;7.90;;
43529;SDS011;55654;50.966;6.878;2024-01-16T02:03:45;13.73;;;7.63;;
43529;SDS011;55654;50.966;6.878;2024-01-16T02:06:12;19.90;;;7.17;;
43529;SDS011;55654;50.966;6.878;2024-01-16T02:08:40;13.33;;;6.90;;
43529;SDS011;55654;50.966;6.878;2024-01-16T02:11:06;19.70;;;7.57;;
43529;SDS011;55654;50.966;6.878;2024-01-16T02:13:35;20.33;;;7.57;;
43529;SDS011;55654;50.966;6.878;2024-01-16T02:16:01;16.50;;;7.80;;
43529;SDS011;55654;50.966;6.878;2024-01-16T02:18:28;17.73;;;8.13;;
43529;SDS011;55654;50.966;6.878;2024-01-16T02:20:56;15.43;;;8.23;;
43529;SDS011;55654;50.966;6.878;2024-01-16T02:23:26;19.97;;;10.13;;
43529;SDS011;55654;50.966;6.878;2024-01-16T02:25:53;16.67;;;8.40;;
43529;SDS011;55654;50.966;6.878;2024-01-16T02:28:19;14.30;;;8.50;;
43529;SDS011;55654;50.966;6.878;2024-01-16T02:30:45;17.43;;;9.27;;
43529;SDS011;55654;50.966;6.878;2024-01-16T02:33:11;18.93;;;8.63;;
43529;SDS011;55654;50.966;6.878;2024-01-16T02:35:39;17.83;;;8.73;;
43529;SDS011;55654;50.966;6.878;2024-01-16T02:38:10;29.17;;;9.07;;
43529;SDS011;55654;50.966;6.878;2024-01-16T02:40:36;19.83;;;8.63;;
43529;SDS011;55654;50.966;6.878;2024-01-16T02:43:05;16.20;;;8.50;;
43529;SDS011;55654;50.966;6.878;2024-01-16T02:45:31;16.30;;;8.00;;
43529;SDS011;55654;50.966;6.878;2024-01-16T02:47:59;18.93;;;8.27;;
43529;SDS011;55654;50.966;6.878;2024-01-16T02:50:25;16.47;;;8.37;;
43529;SDS011;55654;50.966;6.878;2024-01-16T02:52:53;18.87;;;9.23;;
43529;SDS011;55654;50.966;6.878;2024-01-16T02:55:19;18.10;;;8.50;;
43529;SDS011;55654;50.966;6.878;2024-01-16T02:57:45;18.83;;;9.00;;
43529;SDS011;55654;50.966;6.878;2024-01-16T03:00:11;27.17;;;9.87;;
43529;SDS011;55654;50.966;6.878;2024-01-16T03:02:41;20.93;;;8.53;;
43529;SDS011;55654;50.966;6.878;2024-01-16T03:05:07;16.40;;;8.70;;
43529;SDS011;55654;50.966;6.878;2024-01-16T03:07:34;19.00;;;9.40;;
43529;SDS011;55654;50.966;6.878;2024-01-16T03:10:00;19.70;;;8.73;;
43529;SDS011;55654;50.966;6.878;2024-01-16T03:12:26;18.63;;;9.03;;
43529;SDS011;55654;50.966;6.878;2024-01-16T03:14:54;26.93;;;9.80;;
43529;SDS011;55654;50.966;6.878;2024-01-16T03:17:20;31.53;;;9.33;;
43529;SDS011;55654;50.966;6.878;2024-01-16T03:19:49;16.80;;;8.87;;
43529;SDS011;55654;50.966;6.878;2024-01-16T03:22:17;19.10;;;7.87;;
43529;SDS011;55654;50.966;6.878;2024-01-16T03:24:43;24.20;;;9.43;;
43529;SDS011;55654;50.966;6.878;2024-01-16T03:27:09;23.30;;;9.20;;
43529;SDS011;55654;50.966;6.878;2024-01-16T03:29:38;22.07;;;8.40;;
43529;SDS011;55654;50.966;6.878;2024-01-16T03:32:04;17.33;;;9.40;;
43529;SDS011;55654;50.966;6.878;2024-01-16T03:34:30;20.03;;;9.47;;
43529;SDS011;55654;50.966;6.878;2024-01-16T03:36:57;24.23;;;9.03;;
43529;SDS011;55654;50.966;6.878;2024-01-16T03:39:23;16.23;;;8.03;;
43529;SDS011;55654;50.966;6.878;2024-01-16T03:41:49;23.60;;;8.23;;
43529;SDS011;55654;50.966;6.878;2024-01-16T03:44:17;16.83;;;8.50;;
43529;SDS011;55654;50.966;6.878;2024-01-16T03:46:43;21.57;;;8.53;;
43529;SDS011;55654;50.966;6.878;2024-01-16T03:49:09;20.47;;;8.73;;
43529;SDS011;55654;50.966;6.878;2024-01-16T03:51:37;23.70;;;9.37;;
43529;SDS011;55654;50.966;6.878;2024-01-16T03:54:03;22.93;;;10.10;;
43529;SDS011;55654;50.966;6.878;2024-01-16T03:56:29;22.03;;;8.63;;
43529;SDS011;55654;50.966;6.878;2024-01-16T03:58:55;22.93;;;9.60;;
43529;SDS011;55654;50.966;6.878;2024-01-16T04:01:33;23.17;;;9.57;;
43529;SDS011;55654;50.966;6.878;2024-01-16T04:04:02;20.73;;;8.30;;
43529;SDS011;55654;50.966;6.878;2024-01-16T04:06:28;22.43;;;10.30;;
43529;SDS011;55654;50.966;6.878;2024-01-16T04:08:54;16.37;;;9.47;;
43529;SDS011;55654;50.966;6.878;2024-01-16T04:11:21;23.37;;;10.97;;
43529;SDS011;55654;50.966;6.878;2024-01-16T04:13:49;25.77;;;11.37;;
43529;SDS011;55654;50.966;6.878;2024-01-16T04:16:15;18.70;;;11.17;;
43529;SDS011;55654;50.966;6.878;2024-01-16T04:18:42;31.00;;;11.50;;
43529;SDS011;55654;50.966;6.878;2024-01-16T04:21:08;31.33;;;11.13;;
43529;SDS011;55654;50.966;6.878;2024-01-16T04:23:34;28.63;;;11.83;;
43529;SDS011;55654;50.966;6.878;2024-01-16T04:26:00;20.70;;;12.83;;
43529;SDS011;55654;50.966;6.878;2024-01-16T04:28:26;21.87;;;11.60;;
43529;SDS011;55654;50.966;6.878;2024-01-16T04:30:52;21.80;;;12.57;;
43529;SDS011;55654;50.966;6.878;2024-01-16T04:33:18;20.07;;;11.70;;
43529;SDS011;55654;50.966;6.878;2024-01-16T04:35:47;19.83;;;10.80;;
43529;SDS011;55654;50.966;6.878;2024-01-16T04:38:13;23.00;;;10.93;;
43529;SDS011;55654;50.966;6.878;2024-01-16T04:40:39;20.80;;;11.30;;
43529;SDS011;55654;50.966;6.878;2024-01-16T04:43:05;26.90;;;10.53;;
43529;SDS011;55654;50.966;6.878;2024-01-16T04:45:33;21.73;;;10.93;;
43529;SDS011;55654;50.966;6.878;2024-01-16T04:47:59;35.17;;;12.10;;
43529;SDS011;55654;50.966;6.878;2024-01-16T04:50:25;34.50;;;10.90;;
43529;SDS011;55654;50.966;6.878;2024-01-16T04:52:56;22.27;;;9.30;;
43529;SDS011;55654;50.966;6.878;2024-01-16T04:55:22;22.97;;;9.33;;
43529;SDS011;55654;50.966;6.878;2024-01-16T04:57:48;23.63;;;9.13;;
43529;SDS011;55654;50.966;6.878;2024-01-16T05:00:16;25.87;;;8.93;;
43529;SDS011;55654;50.966;6.878;2024-01-16T05:02:45;18.37;;;7.80;;
43529;SDS011;55654;50.966;6.878;2024-01-16T05:05:11;18.77;;;8.73;;
43529;SDS011;55654;50.966;6.878;2024-01-16T05:07:40;20.53;;;7.17;;
43529;SDS011;55654;50.966;6.878;2024-01-16T05:10:09;21.43;;;7.03;;
43529;SDS011;55654;50.966;6.878;2024-01-16T05:12:35;21.73;;;7.77;;
43529;SDS011;55654;50.966;6.878;2024-01-16T05:15:01;16.60;;;7.13;;
43529;SDS011;55654;50.966;6.878;2024-01-16T05:17:27;18.97;;;6.63;;
43529;SDS011;55654;50.966;6.878;2024-01-16T05:19:53;18.07;;;6.57;;
43529;SDS011;55654;50.966;6.878;2024-01-16T05:22:19;19.00;;;6.33;;
43529;SDS011;55654;50.966;6.878;2024-01-16T05:24:45;17.70;;;6.73;;
43529;SDS011;55654;50.966;6.878;2024-01-16T05:27:11;22.23;;;7.03;;
43529;SDS011;55654;50.966;6.878;2024-01-16T05:29:39;22.20;;;5.70;;
43529;SDS011;55654;50.966;6.878;2024-01-16T05:32:06;17.53;;;5.60;;
43529;SDS011;55654;50.966;6.878;2024-01-16T05:34:32;16.60;;;5.33;;
43529;SDS011;55654;50.966;6.878;2024-01-16T05:36:58;25.77;;;6.33;;
43529;SDS011;55654;50.966;6.878;2024-01-16T05:39:24;13.47;;;5.83;;
43529;SDS011;55654;50.966;6.878;2024-01-16T05:41:52;17.33;;;5.27;;
43529;SDS011;55654;50.966;6.878;2024-01-16T05:44:18;13.40;;;5.73;;
43529;SDS011;55654;50.966;6.878;2024-01-16T05:46:46;17.17;;;5.70;;
43529;SDS011;55654;50.966;6.878;2024-01-16T05:49:12;17.63;;;5.40;;
43529;SDS011;55654;50.966;6.878;2024-01-16T05:51:38;17.73;;;4.87;;
43529;SDS011;55654;50.966;6.878;2024-01-16T05:54:04;11.47;;;5.23;;
43529;SDS011;55654;50.966;6.878;2024-01-16T05:56:31;19.77;;;5.60;;
43529;SDS011;55654;50.966;6.878;2024-01-16T05:58:59;11.57;;;4.87;;
43529;SDS011;55654;50.966;6.878;2024-01-16T06:01:25;11.60;;;4.53;;
43529;SDS011;55654;50.966;6.878;2024-01-16T06:03:52;12.60;;;4.73;;
43529;SDS011;55654;50.966;6.878;2024-01-16T06:06:18;13.47;;;5.07;;
43529;SDS011;55654;50.966;6.878;2024-01-16T06:08:44;23.23;;;5.40;;
43529;SDS011;55654;50.966;6.878;2024-01-16T06:11:10;14.30;;;5.50;;
43529;SDS011;55654;50.966;6.878;2024-01-16T06:13:38;20.13;;;5.80;;
43529;SDS011;55654;50.966;6.878;2024-01-16T06:16:07;14.23;;;4.63;;
43529;SDS011;55654;50.966;6.878;2024-01-16T06:18:35;18.40;;;4.80;;
43529;SDS011;55654;50.966;6.878;2024-01-16T06:21:02;21.27;;;5.77;;
43529;SDS011;55654;50.966;6.878;2024-01-16T06:23:28;16.00;;;4.87;;
43529;SDS011;55654;50.966;6.878;2024-01-16T06:25:55;12.80;;;5.70;;
43529;SDS011;55654;50.966;6.878;2024-01-16T06:28:21;14.30;;;5.17;;
43529;SDS011;55654;50.966;6.878;2024-01-16T06:30:47;15.93;;;5.30;;
43529;SDS011;55654;50.966;6.878;2024-01-16T06:33:13;14.77;;;4.53;;
43529;SDS011;55654;50.966;6.878;2024-01-16T06:35:38;17.50;;;5.10;;
43529;SDS011;55654;50.966;6.878;2024-01-16T06:38:05;17.23;;;5.93;;
43529;SDS011;55654;50.966;6.878;2024-01-16T06:40:33;13.07;;;5.27;;
43529;SDS011;55654;50.966;6.878;2024-01-16T06:42:59;17.83;;;5.77;;
43529;SDS011;55654;50.966;6.878;2024-01-16T06:45:25;19.93;;;5.17;;
43529;SDS011;55654;50.966;6.878;2024-01-16T06:47:51;20.70;;;5.23;;
43529;SDS011;55654;50.966;6.878;2024-01-16T06:50:17;12.43;;;4.70;;
43529;SDS011;55654;50.966;6.878;2024-01-16T06:52:44;18.10;;;5.30;;
43529;SDS011;55654;50.966;6.878;2024-01-16T06:55:10;21.47;;;5.77;;
43529;SDS011;55654;50.966;6.878;2024-01-16T06:57:36;16.43;;;3.87;;
43529;SDS011;55654;50.966;6.878;2024-01-16T07:00:02;17.50;;;5.13;;
43529;SDS011;55654;50.966;6.878;2024-01-16T07:02:32;13.77;;;4.50;;
43529;SDS011;55654;50.966;6.878;2024-01-16T07:04:58;15.23;;;4.20;;
43529;SDS011;55654;50.966;6.878;2024-01-16T07:07:24;11.93;;;4.57;;
43529;SDS011;55654;50.966;6.878;2024-01-16T07:09:50;11.83;;;4.53;;
43529;SDS011;55654;50.966;6.878;2024-01-16T07:12:16;14.37;;;4.40;;
43529;SDS011;55654;50.966;6.878;2024-01-16T07:14:42;13.20;;;4.13;;
43529;SDS011;55654;50.966;6.878;2024-01-16T07:17:08;14.07;;;4.43;;
43529;SDS011;55654;50.966;6.878;2024-01-16T07:19:34;10.43;;;3.97;;
43529;SDS011;55654;50.966;6.878;2024-01-16T07:22:00;14.03;;;4.27;;
43529;SDS011;55654;50.966;6.878;2024-01-16T07:24:26;14.67;;;5.00;;
43529;SDS011;55654;50.966;6.878;2024-01-16T07:26:52;11.20;;;3.70;;
43529;SDS011;55654;50.966;6.878;2024-01-16T07:29:19;11.07;;;4.07;;
43529;SDS011;55654;50.966;6.878;2024-01-16T07:31:46;15.30;;;4.03;;
43529;SDS011;55654;50.966;6.878;2024-01-16T07:34:12;16.53;;;4.53;;
43529;SDS011;55654;50.966;6.878;2024-01-16T07:36:42;14.53;;;4.03;;
43529;SDS011;55654;50.966;6.878;2024-01-16T07:39:08;8.67;;;3.53;;
43529;SDS011;55654;50.966;6.878;2024-01-16T07:41:34;13.40;;;4.03;;
43529;SDS011;55654;50.966;6.878;2024-01-16T07:44:02;12.73;;;3.40;;
43529;SDS011;55654;50.966;6.878;2024-01-16T07:46:28;14.20;;;3.33;;
43529;SDS011;55654;50.966;6.878;2024-01-16T07:48:54;12.70;;;3.50;;
43529;SDS011;55654;50.966;6.878;2024-01-16T07:51:20;8.43;;;3.67;;
43529;SDS011;55654;50.966;6.878;2024-01-16T07:53:46;7.53;;;2.90;;
43529;SDS011;55654;50.966;6.878;2024-01-16T07:56:19;11.63;;;3.27;;
43529;SDS011;55654;50.966;6.878;2024-01-16T07:58:45;9.77;;;3.30;;
43529;SDS011;55654;50.966;6.878;2024-01-16T08:01:11;20.47;;;4.03;;
43529;SDS011;55654;50.966;6.878;2024-01-16T08:03:37;10.00;;;3.00;;
43529;SDS011;55654;50.966;6.878;2024-01-16T08:06:03;8.77;;;3.03;;
43529;SDS011;55654;50.966;6.878;2024-01-16T08:08:29;11.60;;;3.10;;
43529;SDS011;55654;50.966;6.878;2024-01-16T08:10:58;12.57;;;3.40;;
43529;SDS011;55654;50.966;6.878;2024-01-16T08:13:24;10.23;;;2.73;;
43529;SDS011;55654;50.966;6.878;2024-01-16T08:15:52;7.67;;;2.73;;
43529;SDS011;55654;50.966;6.878;2024-01-16T08:18:18;15.40;;;3.23;;
43529;SDS011;55654;50.966;6.878;2024-01-16T08:20:44;9.93;;;3.03;;
43529;SDS011;55654;50.966;6.878;2024-01-16T08:23:10;12.67;;;2.93;;
43529;SDS011;55654;50.966;6.878;2024-01-16T08:25:36;12.53;;;2.23;;
43529;SDS011;55654;50.966;6.878;2024-01-16T08:28:02;14.20;;;2.67;;
43529;SDS011;55654;50.966;6.878;2024-01-16T08:30:28;7.37;;;2.90;;
43529;SDS011;55654;50.966;6.878;2024-01-16T08:32:56;16.43;;;2.60;;
43529;SDS011;55654;50.966;6.878;2024-01-16T08:35:22;12.93;;;3.40;;
43529;SDS011;55654;50.966;6.878;2024-01-16T08:37:48;8.03;;;2.30;;
43529;SDS011;55654;50.966;6.878;2024-01-16T08:40:14;18.57;;;3.27;;
43529;SDS011;55654;50.966;6.878;2024-01-16T08:42:40;13.37;;;2.90;;
43529;SDS011;55654;50.966;6.878;2024-01-16T08:45:06;13.53;;;3.87;;
43529;SDS011;55654;50.966;6.878;2024-01-16T08:47:32;7.00;;;2.60;;
43529;SDS011;55654;50.966;6.878;2024-01-16T08:49:59;12.63;;;3.40;;
43529;SDS011;55654;50.966;6.878;2024-01-16T08:52:25;10.67;;;2.80;;
43529;SDS011;55654;50.966;6.878;2024-01-16T08:54:51;14.97;;;3.47;;
43529;SDS011;55654;50.966;6.878;2024-01-16T08:57:17;10.63;;;2.80;;
43529;SDS011;55654;50.966;6.878;2024-01-16T08:59:43;9.77;;;3.20;;
43529;SDS011;55654;50.966;6.878;2024-01-16T09:02:09;7.03;;;2.73;;
43529;SDS011;55654;50.966;6.878;2024-01-16T09:04:35;10.33;;;2.60;;
43529;SDS011;55654;50.966;6.878;2024-01-16T09:07:01;13.80;;;2.63;;
43529;SDS011;55654;50.966;6.878;2024-01-16T09:09:29;8.80;;;2.60;;
43529;SDS011;55654;50.966;6.878;2024-01-16T09:11:57;14.47;;;3.87;;
43529;SDS011;55654;50.966;6.878;2024-01-16T09:14:26;7.80;;;3.00;;
43529;SDS011;55654;50.966;6.878;2024-01-16T09:16:52;8.10;;;2.60;;
43529;SDS011;55654;50.966;6.878;2024-01-16T09:19:19;7.87;;;2.37;;
43529;SDS011;55654;50.966;6.878;2024-01-16T09:21:45;7.53;;;2.37;;
43529;SDS011;55654;50.966;6.878;2024-01-16T09:24:11;10.50;;;3.07;;
43529;SDS011;55654;50.966;6.878;2024-01-16T09:26:37;7.27;;;2.87;;
43529;SDS011;55654;50.966;6.878;2024-01-16T09:29:03;8.20;;;2.67;;
43529;SDS011;55654;50.966;6.878;2024-01-16T09:31:29;13.50;;;5.07;;
43529;SDS011;55654;50.966;6.878;2024-01-16T09:33:55;15.07;;;3.33;;
43529;SDS011;55654;50.966;6.878;2024-01-16T09:36:21;10.07;;;2.73;;
43529;SDS011;55654;50.966;6.878;2024-01-16T09:38:47;12.50;;;2.70;;
43529;SDS011;55654;50.966;6.878;2024-01-16T09:41:13;8.40;;;3.13;;
43529;SDS011;55654;50.966;6.878;2024-01-16T09:43:40;13.33;;;3.30;;
43529;SDS011;55654;50.966;6.878;2024-01-16T09:46:09;12.10;;;2.83;;
43529;SDS011;55654;50.966;6.878;2024-01-16T09:48:36;8.00;;;2.93;;
43529;SDS011;55654;50.966;6.878;2024-01-16T09:51:02;13.97;;;3.80;;
43529;SDS011;55654;50.966;6.878;2024-01-16T09:53:29;13.40;;;4.13;;
43529;SDS011;55654;50.966;6.878;2024-01-16T09:56:03;7.77;;;2.50;;
43529;SDS011;55654;50.966;6.878;2024-01-16T09:58:30;12.10;;;3.37;;
43529;SDS011;55654;50.966;6.878;2024-01-16T10:01:01;9.47;;;2.67;;
43529;SDS011;55654;50.966;6.878;2024-01-16T10:03:27;11.40;;;2.93;;
43529;SDS011;55654;50.966;6.878;2024-01-16T10:05:59;10.63;;;3.70;;
43529;SDS011;55654;50.966;6.878;2024-01-16T10:08:40;15.43;;;3.30;;
43529;SDS011;55654;50.966;6.878;2024-01-16T10:11:06;15.57;;;3.73;;
43529;SDS011;55654;50.966;6.878;2024-01-16T10:13:43;9.77;;;2.70;;
43529;SDS011;55654;50.966;6.878;2024-01-16T10:21:51;12.70;;;3.73;;
43529;SDS011;55654;50.966;6.878;2024-01-16T10:24:30;9.53;;;3.07;;
43529;SDS011;55654;50.966;6.878;2024-01-16T10:27:03;11.43;;;3.07;;
43529;SDS011;55654;50.966;6.878;2024-01-16T10:29:31;7.00;;;2.50;;
43529;SDS011;55654;50.966;6.878;2024-01-16T10:31:57;20.33;;;2.93;;
43529;SDS011;55654;50.966;6.878;2024-01-16T10:34:23;10.03;;;2.80;;
43529;SDS011;55654;50.966;6.878;2024-01-16T10:36:50;7.90;;;3.07;;
43529;SDS011;55654;50.966;6.878;2024-01-16T10:39:18;11.37;;;2.40;;
43529;SDS011;55654;50.966;6.878;2024-01-16T10:42:02;12.53;;;2.43;;
43529;SDS011;55654;50.966;6.878;2024-01-16T10:44:28;8.40;;;2.07;;
43529;SDS011;55654;50.966;6.878;2024-01-16T10:47:09;8.77;;;2.30;;
43529;SDS011;55654;50.966;6.878;2024-01-16T10:49:37;7.88;;;2.67;;
43529;SDS011;55654;50.966;6.878;2024-01-16T10:52:03;9.43;;;2.37;;
43529;SDS011;55654;50.966;6.878;2024-01-16T10:54:30;11.53;;;2.77;;
43529;SDS011;55654;50.966;6.878;2024-01-16T10:56:57;8.83;;;2.37;;
43529;SDS011;55654;50.966;6.878;2024-01-16T10:59:48;8.33;;;3.17;;
43529;SDS011;55654;50.966;6.878;2024-01-16T11:02:19;7.90;;;1.93;;
43529;SDS011;55654;50.966;6.878;2024-01-16T11:04:46;13.07;;;2.40;;
43529;SDS011;55654;50.966;6.878;2024-01-16T11:07:13;12.03;;;2.50;;
43529;SDS011;55654;50.966;6.878;2024-01-16T11:09:40;9.83;;;2.50;;
43529;SDS011;55654;50.966;6.878;2024-01-16T11:12:06;6.20;;;2.60;;
43529;SDS011;55654;50.966;6.878;2024-01-16T11:14:36;9.03;;;2.50;;
43529;SDS011;55654;50.966;6.878;2024-01-16T11:17:02;12.43;;;3.37;;
43529;SDS011;55654;50.966;6.878;2024-01-16T11:19:29;11.33;;;2.53;;
43529;SDS011;55654;50.966;6.878;2024-01-16T11:21:59;8.67;;;2.07;;
43529;SDS011;55654;50.966;6.878;2024-01-16T11:24:26;10.27;;;2.67;;
43529;SDS011;55654;50.966;6.878;2024-01-16T11:26:52;15.07;;;2.63;;
43529;SDS011;55654;50.966;6.878;2024-01-16T11:31:57;10.87;;;3.30;;
43529;SDS011;55654;50.966;6.878;2024-01-16T11:37:10;10.70;;;2.63;;
43529;SDS011;55654;50.966;6.878;2024-01-16T11:39:37;8.17;;;2.70;;
43529;SDS011;55654;50.966;6.878;2024-01-16T11:42:03;8.33;;;2.20;;
43529;SDS011;55654;50.966;6.878;2024-01-16T11:44:36;9.43;;;2.80;;
43529;SDS011;55654;50.966;6.878;2024-01-16T11:47:05;12.25;;;2.83;;
43529;SDS011;55654;50.966;6.878;2024-01-16T11:49:32;7.57;;;2.40;;
43529;SDS011;55654;50.966;6.878;2024-01-16T11:51:58;12.00;;;3.10;;
43529;SDS011;55654;50.966;6.878;2024-01-16T11:54:24;11.57;;;2.73;;
43529;SDS011;55654;50.966;6.878;2024-01-16T11:57:01;9.13;;;2.50;;
43529;SDS011;55654;50.966;6.878;2024-01-16T12:02:26;12.40;;;2.87;;
43529;SDS011;55654;50.966;6.878;2024-01-16T12:04:53;6.43;;;2.50;;
43529;SDS011;55654;50.966;6.878;2024-01-16T12:07:23;4.97;;;2.13;;
43529;SDS011;55654;50.966;6.878;2024-01-16T12:09:49;7.80;;;2.60;;
43529;SDS011;55654;50.966;6.878;2024-01-16T12:12:18;6.30;;;2.57;;
43529;SDS011;55654;50.966;6.878;2024-01-16T12:14:52;8.77;;;3.00;;
43529;SDS011;55654;50.966;6.878;2024-01-16T12:17:21;8.57;;;3.20;;
43529;SDS011;55654;50.966;6.878;2024-01-16T12:19:47;11.67;;;2.73;;
43529;SDS011;55654;50.966;6.878;2024-01-16T12:22:17;10.03;;;2.40;;
43529;SDS011;55654;50.966;6.878;2024-01-16T12:24:49;10.53;;;2.80;;
43529;SDS011;55654;50.966;6.878;2024-01-16T12:27:17;8.37;;;2.63;;
43529;SDS011;55654;50.966;6.878;2024-01-16T12:29:43;9.00;;;2.30;;
43529;SDS011;55654;50.966;6.878;2024-01-16T12:32:10;8.13;;;2.83;;
43529;SDS011;55654;50.966;6.878;2024-01-16T12:34:43;8.87;;;2.40;;
43529;SDS011;55654;50.966;6.878;2024-01-16T12:40:31;14.03;;;3.60;;
43529;SDS011;55654;50.966;6.878;2024-01-16T12:42:59;10.70;;;2.90;;
43529;SDS011;55654;50.966;6.878;2024-01-16T12:45:25;11.30;;;3.90;;
43529;SDS011;55654;50.966;6.878;2024-01-16T12:47:53;6.43;;;2.30;;
43529;SDS011;55654;50.966;6.878;2024-01-16T12:50:23;6.90;;;2.93;;
43529;SDS011;55654;50.966;6.878;2024-01-16T12:53:10;9.90;;;2.70;;
43529;SDS011;55654;50.966;6.878;2024-01-16T12:55:46;5.77;;;2.40;;
43529;SDS011;55654;50.966;6.878;2024-01-16T12:58:22;10.80;;;2.43;;
43529;SDS011;55654;50.966;6.878;2024-01-16T13:00:51;10.93;;;2.73;;
43529;SDS011;55654;50.966;6.878;2024-01-16T13:03:17;10.80;;;2.53;;
43529;SDS011;55654;50.966;6.878;2024-01-16T13:05:44;6.07;;;2.53;;
43529;SDS011;55654;50.966;6.878;2024-01-16T13:08:16;9.43;;;3.00;;
43529;SDS011;55654;50.966;6.878;2024-01-16T13:11:04;9.83;;;2.80;;
43529;SDS011;55654;50.966;6.878;2024-01-16T13:13:39;11.83;;;3.67;;
43529;SDS011;55654;50.966;6.878;2024-01-16T13:16:06;5.97;;;2.63;;
43529;SDS011;55654;50.966;6.878;2024-01-16T13:18:34;10.67;;;3.47;;
43529;SDS011;55654;50.966;6.878;2024-01-16T13:21:01;10.33;;;3.27;;
43529;SDS011;55654;50.966;6.878;2024-01-16T13:23:27;11.27;;;3.80;;
43529;SDS011;55654;50.966;6.878;2024-01-16T13:25:54;7.90;;;3.00;;
43529;SDS011;55654;50.966;6.878;2024-01-16T13:28:22;12.33;;;3.37;;
43529;SDS011;55654;50.966;6.878;2024-01-16T13:30:49;11.30;;;3.17;;
43529;SDS011;55654;50.966;6.878;2024-01-16T13:33:16;12.67;;;3.13;;
43529;SDS011;55654;50.966;6.878;2024-01-16T13:35:46;13.40;;;3.07;;
43529;SDS011;55654;50.966;6.878;2024-01-16T13:38:13;14.83;;;3.40;;
43529;SDS011;55654;50.966;6.878;2024-01-16T13:40:47;12.17;;;2.87;;
43529;SDS011;55654;50.966;6.878;2024-01-16T13:43:17;7.33;;;3.10;;
43529;SDS011;55654;50.966;6.878;2024-01-16T13:45:43;7.37;;;3.13;;
43529;SDS011;55654;50.966;6.878;2024-01-16T13:48:10;10.27;;;3.63;;
43529;SDS011;55654;50.966;6.878;2024-01-16T13:50:36;13.07;;;3.97;;
43529;SDS011;55654;50.966;6.878;2024-01-16T13:53:02;8.97;;;3.67;;
43529;SDS011;55654;50.966;6.878;2024-01-16T13:55:28;8.80;;;4.53;;
43529;SDS011;55654;50.966;6.878;2024-01-16T13:57:59;9.07;;;3.50;;
43529;SDS011;55654;50.966;6.878;2024-01-16T14:00:25;9.93;;;3.13;;
43529;SDS011;55654;50.966;6.878;2024-01-16T14:02:51;8.10;;;3.27;;
43529;SDS011;55654;50.966;6.878;2024-01-16T14:05:20;13.50;;;3.30;;
43529;SDS011;55654;50.966;6.878;2024-01-16T14:07:48;12.33;;;3.53;;
43529;SDS011;55654;50.966;6.878;2024-01-16T14:10:21;10.07;;;3.03;;
43529;SDS011;55654;50.966;6.878;2024-01-16T14:12:49;12.43;;;3.77;;
43529;SDS011;55654;50.966;6.878;2024-01-16T14:15:19;10.10;;;3.17;;
43529;SDS011;55654;50.966;6.878;2024-01-16T14:20:15;10.40;;;3.37;;
43529;SDS011;55654;50.966;6.878;2024-01-16T14:22:41;11.47;;;3.60;;
43529;SDS011;55654;50.966;6.878;2024-01-16T14:25:11;8.87;;;3.53;;
43529;SDS011;55654;50.966;6.878;2024-01-16T14:27:40;8.80;;;3.07;;
43529;SDS011;55654;50.966;6.878;2024-01-16T14:30:12;15.00;;;4.37;;
43529;SDS011;55654;50.966;6.878;2024-01-16T14:32:40;6.33;;;3.20;;
43529;SDS011;55654;50.966;6.878;2024-01-16T14:35:07;8.60;;;3.63;;
43529;SDS011;55654;50.966;6.878;2024-01-16T14:37:34;7.13;;;3.70;;
43529;SDS011;55654;50.966;6.878;2024-01-16T14:40:01;10.03;;;4.77;;
43529;SDS011;55654;50.966;6.878;2024-01-16T14:42:47;12.33;;;3.10;;
43529;SDS011;55654;50.966;6.878;2024-01-16T14:45:16;7.40;;;2.97;;
43529;SDS011;55654;50.966;6.878;2024-01-16T14:47:43;7.53;;;2.80;;
43529;SDS011;55654;50.966;6.878;2024-01-16T14:50:10;8.17;;;3.17;;
43529;SDS011;55654;50.966;6.878;2024-01-16T14:52:51;10.30;;;3.13;;
43529;SDS011;55654;50.966;6.878;2024-01-16T14:55:17;5.53;;;2.60;;
43529;SDS011;55654;50.966;6.878;2024-01-16T14:57:45;7.23;;;2.63;;